createdAt,value
2023-02-06T00:01:43.954Z,100288.22
2023-02-06T00:04:12.679Z,100279.72
2023-02-06T00:06:41.031Z,100278.88
2023-02-06T00:09:09.592Z,100291.56
2023-02-06T00:11:38.194Z,100281.38
2023-02-06T00:14:07.011Z,100295.81
2023-02-06T00:16:36.792Z,100289.81
2023-02-06T00:19:06.797Z,100287.31
2023-02-06T00:21:35.457Z,100288.13
2023-02-06T00:24:04.143Z,100284.72
2023-02-06T00:26:32.763Z,100287.31
2023-02-06T00:29:01.191Z,100286.47
2023-02-06T00:31:29.540Z,100277.13
2023-02-06T00:33:57.974Z,100271.19
2023-02-06T00:36:28.604Z,100275.44
2023-02-06T00:38:56.932Z,100283.97
2023-02-06T00:41:25.408Z,100281.38
2023-02-06T00:43:53.694Z,100286.47
2023-02-06T00:46:22.140Z,100290.75
2023-02-06T00:48:52.435Z,100290.72
2023-02-06T00:51:20.981Z,100272.03
2023-02-06T00:53:51.297Z,100279.69
2023-02-06T00:56:21.230Z,100279.66
2023-02-06T00:58:49.664Z,100270.34
2023-02-06T01:01:18.296Z,100275.44
2023-02-06T01:03:47.126Z,100273.72
2023-02-06T01:06:15.512Z,100263.50
2023-02-06T01:08:43.957Z,100270.28
2023-02-06T01:11:16.041Z,100281.31
2023-02-06T01:13:44.777Z,100274.53
2023-02-06T01:16:15.977Z,100273.69
2023-02-06T01:18:44.451Z,100285.56
2023-02-06T01:21:15.049Z,100288.97
2023-02-06T01:23:44.493Z,100287.25
2023-02-06T01:26:17.367Z,100293.19
2023-02-06T01:28:48.526Z,100288.97
2023-02-06T01:31:20.282Z,100289.81
2023-02-06T01:33:50.705Z,100288.09
2023-02-06T01:36:20.955Z,100287.25
2023-02-06T01:38:50.292Z,100292.31
2023-02-06T01:41:22.376Z,100292.31
2023-02-06T01:44:12.750Z,100285.50
2023-02-06T01:46:43.110Z,100288.88
2023-02-06T01:49:17.451Z,100281.25
2023-02-06T01:51:46.823Z,100275.31
2023-02-06T01:54:16.406Z,100263.44
2023-02-06T01:56:50.894Z,100271.91
2023-02-06T01:59:19.438Z,100265.13
2023-02-06T02:01:48.211Z,100271.97
2023-02-06T02:04:20.308Z,100277.03
2023-02-06T02:06:55.848Z,100290.53
2023-02-06T02:09:24.384Z,100287.16
2023-02-06T02:11:54.272Z,100276.97
2023-02-06T02:14:22.733Z,100282.91
2023-02-06T02:17:04.915Z,100277.78
2023-02-06T02:20:16.430Z,100282.84
2023-02-06T02:22:58.223Z,100273.50
2023-02-06T02:26:38.042Z,100275.19
2023-02-06T02:29:47.047Z,100266.66
2023-02-06T02:32:52.068Z,100277.69
2023-02-06T02:35:35.425Z,100273.44
2023-02-06T02:38:19.336Z,100280.28
2023-02-06T02:40:56.188Z,100276.00
2023-02-06T02:43:35.710Z,100267.44
2023-02-06T02:46:13.829Z,100259.03
2023-02-06T02:48:46.627Z,100262.41
2023-02-06T02:51:16.654Z,100248.00
2023-02-06T02:53:45.208Z,100257.28
2023-02-06T02:56:18.817Z,100261.50
2023-02-06T02:58:51.842Z,100260.66
2023-02-06T03:01:26.108Z,100252.22
2023-02-06T03:03:56.569Z,100253.88
2023-02-06T03:06:44.764Z,100262.34
2023-02-06T03:09:23.853Z,100261.47
2023-02-06T03:12:01.883Z,100258.91
2023-02-06T03:14:36.026Z,100253.00
2023-02-06T03:17:10.000Z,100263.19
2023-02-06T03:19:45.254Z,100262.34
2023-02-06T03:22:15.831Z,100265.69
2023-02-06T03:24:44.362Z,100269.09
2023-02-06T03:27:16.196Z,100259.78
2023-02-06T03:29:46.276Z,100256.38
2023-02-06T03:32:19.682Z,100252.16
2023-02-06T03:34:56.633Z,100253.00
2023-02-06T03:37:27.752Z,100254.72
2023-02-06T03:39:59.105Z,100247.88
2023-02-06T03:42:27.832Z,100240.22
2023-02-06T03:45:01.237Z,100249.50
2023-02-06T03:47:31.329Z,100250.41
2023-02-06T03:50:02.664Z,100258.03
2023-02-06T03:52:39.638Z,100256.28
2023-02-06T03:55:12.577Z,100261.38
2023-02-06T03:57:43.416Z,100269.84
2023-02-06T04:00:13.980Z,100270.72
2023-02-06T04:02:43.481Z,100267.31
2023-02-06T04:05:11.743Z,100275.75
2023-02-06T04:07:41.564Z,100279.94
2023-02-06T04:10:10.358Z,100288.47
2023-02-06T04:12:39.299Z,100274.91
2023-02-06T04:15:08.539Z,100275.69
2023-02-06T04:17:53.721Z,100282.47
2023-02-06T04:20:25.612Z,100285.00
2023-02-06T04:22:55.511Z,100275.63
2023-02-06T04:25:23.912Z,100270.53
2023-02-06T04:27:52.333Z,100262.94
2023-02-06T04:30:20.738Z,100264.53
2023-02-06T04:32:49.006Z,100270.53
2023-02-06T04:35:17.524Z,100265.44
2023-02-06T04:37:45.768Z,100270.53
2023-02-06T04:40:18.223Z,100271.38
2023-02-06T04:42:46.640Z,100268.84
2023-02-06T04:45:15.061Z,100266.31
2023-02-06T04:47:43.541Z,100265.47
2023-02-06T04:50:12.283Z,100268.00
2023-02-06T04:52:40.561Z,100264.59
2023-02-06T04:55:09.914Z,100268.00
2023-02-06T04:57:39.768Z,100263.69
2023-02-06T05:00:10.356Z,100265.38
2023-02-06T05:02:39.824Z,100257.75
2023-02-06T05:05:10.337Z,100260.28
2023-02-06T05:07:38.629Z,100272.16
2023-02-06T05:10:08.887Z,100270.53
2023-02-06T05:12:39.055Z,100264.59
2023-02-06T05:15:08.809Z,100266.34
2023-02-06T05:17:37.123Z,100268.84
2023-02-06T05:20:06.825Z,100274.78
2023-02-06T05:22:35.251Z,100278.16
2023-02-06T05:25:03.994Z,100274.00
2023-02-06T05:27:32.255Z,100272.28
2023-02-06T05:30:02.222Z,100270.59
2023-02-06T05:32:30.437Z,100267.13
2023-02-06T05:34:58.760Z,100279.88
2023-02-06T05:37:27.108Z,100277.38
2023-02-06T05:39:55.322Z,100274.00
2023-02-06T05:42:23.578Z,100271.38
2023-02-06T05:44:51.856Z,100271.41
2023-02-06T05:47:21.473Z,100273.94
2023-02-06T05:49:49.846Z,100273.13
2023-02-06T05:52:18.241Z,100269.69
2023-02-06T05:54:46.583Z,100279.88
2023-02-06T05:57:14.964Z,100282.41
2023-02-06T05:59:43.204Z,100282.41
2023-02-06T06:02:11.861Z,100271.44
2023-02-06T06:04:41.636Z,100260.34
2023-02-06T06:07:10.668Z,100268.78
2023-02-06T06:09:38.998Z,100267.09
2023-02-06T06:12:08.003Z,100269.69
2023-02-06T06:14:36.589Z,100278.16
2023-02-06T06:17:05.222Z,100284.94
2023-02-06T06:19:33.681Z,100286.59
2023-02-06T06:22:03.511Z,100286.53
2023-02-06T06:24:31.854Z,100275.50
2023-02-06T06:27:00.224Z,100282.28
2023-02-06T06:29:28.584Z,100294.16
2023-02-06T06:31:57.253Z,100301.75
2023-02-06T06:34:27.379Z,100303.47
2023-02-06T06:36:55.728Z,100291.69
2023-02-06T06:39:25.663Z,100285.72
2023-02-06T06:41:53.961Z,100291.69
2023-02-06T06:44:22.639Z,100288.22
2023-02-06T06:46:51.136Z,100299.31
2023-02-06T06:49:19.727Z,100295.06
2023-02-06T06:51:47.982Z,100294.16
2023-02-06T06:54:16.760Z,100296.00
2023-02-06T06:56:46.364Z,100297.63
2023-02-06T06:59:14.587Z,100292.47
2023-02-06T07:01:42.864Z,100295.00
2023-02-06T07:04:11.194Z,100294.94
2023-02-06T07:06:39.538Z,100296.63
2023-02-06T07:09:07.815Z,100305.91
2023-02-06T07:14:06.956Z,100304.25
2023-02-06T07:16:35.246Z,100303.31
2023-02-06T07:19:03.766Z,100296.50
2023-02-06T07:21:32.092Z,100293.13
2023-02-06T07:24:00.701Z,100304.97
2023-02-06T07:26:29.068Z,100310.91
2023-02-06T07:28:58.572Z,100310.06
2023-02-06T07:31:28.259Z,100315.16
2023-02-06T07:33:56.545Z,100315.16
2023-02-06T07:36:24.807Z,100306.69
2023-02-06T07:38:53.199Z,100305.84
2023-02-06T07:41:21.437Z,100316.97
2023-02-06T07:43:49.799Z,100312.75
2023-02-06T07:46:18.208Z,100311.06
2023-02-06T07:48:47.986Z,100315.31
2023-02-06T07:51:16.238Z,100308.47
2023-02-06T07:53:44.551Z,100308.50
2023-02-06T07:56:15.724Z,100318.69
2023-02-06T07:58:44.426Z,100310.22
2023-02-06T08:01:12.736Z,100311.13
2023-02-06T08:03:41.061Z,100306.88
2023-02-06T08:06:13.029Z,100301.84
2023-02-06T08:08:41.749Z,100301.84
2023-02-06T08:11:12.479Z,100304.41
2023-02-06T08:13:40.958Z,100305.31
2023-02-06T08:16:13.206Z,100312.09
2023-02-06T08:18:42.009Z,100312.03
2023-02-06T08:21:15.072Z,100305.28
2023-02-06T08:23:44.483Z,100300.19
2023-02-06T08:26:16.656Z,100301.84
2023-02-06T08:28:47.551Z,100303.63
2023-02-06T08:31:20.050Z,100291.75
2023-02-06T08:33:49.001Z,100300.28
2023-02-06T08:36:20.688Z,100302.91
2023-02-06T08:38:49.547Z,100307.19
2023-02-06T08:41:20.651Z,100310.47
2023-02-06T08:43:50.699Z,100306.22
2023-02-06T08:46:21.905Z,100302.91
2023-02-06T08:48:55.228Z,100293.56
2023-02-06T08:51:27.810Z,100297.88
2023-02-06T08:53:58.301Z,100299.63
2023-02-06T08:56:28.269Z,100308.22
2023-02-06T08:58:59.501Z,100312.53
2023-02-06T09:01:30.178Z,100308.31
2023-02-06T09:04:00.806Z,100313.41
2023-02-06T09:06:31.852Z,100310.78
2023-02-06T09:09:00.464Z,100313.38
2023-02-06T09:11:29.990Z,100309.09
2023-02-06T09:14:01.000Z,100304.06
2023-02-06T09:16:33.121Z,100304.91
2023-02-06T09:19:02.757Z,100301.41
2023-02-06T09:21:34.602Z,100302.25
2023-02-06T09:24:05.336Z,100296.28
2023-02-06T09:26:40.575Z,100295.34
2023-02-06T09:29:13.698Z,100301.41
2023-02-06T09:31:43.640Z,100297.09
2023-02-06T09:34:14.415Z,100295.50
2023-02-06T09:36:44.155Z,100284.50
2023-02-06T09:39:12.433Z,100281.88
2023-02-06T09:41:47.130Z,100276.84
2023-02-06T09:44:21.185Z,100279.44
2023-02-06T09:46:54.360Z,100275.22
2023-02-06T09:49:27.166Z,100271.81
2023-02-06T09:52:19.502Z,100267.56
2023-02-06T09:55:00.415Z,100248.03
2023-02-06T09:57:42.016Z,100248.94
2023-02-06T10:00:29.589Z,100232.75
2023-02-06T10:03:29.594Z,100234.53
2023-02-06T10:06:12.671Z,100237.97
2023-02-06T10:08:50.383Z,100238.88
2023-02-06T10:11:25.730Z,100234.56
2023-02-06T10:13:59.491Z,100230.31
2023-02-06T10:16:39.521Z,100232.94
2023-02-06T10:19:22.840Z,100239.81
2023-02-06T10:21:57.118Z,100233.03
2023-02-06T10:24:38.193Z,100230.53
2023-02-06T10:27:13.831Z,100222.91
2023-02-06T10:29:44.322Z,100218.66
2023-02-06T10:32:38.473Z,100221.94
2023-02-06T10:35:29.631Z,100219.50
2023-02-06T10:38:28.468Z,100209.38
2023-02-06T10:41:05.615Z,100214.50
2023-02-06T10:43:44.776Z,100213.75
2023-02-06T10:46:39.678Z,100212.91
2023-02-06T10:49:18.622Z,100217.25
2023-02-06T10:51:52.743Z,100217.19
2023-02-06T10:54:25.694Z,100219.69
2023-02-06T10:56:58.581Z,100216.41
2023-02-06T10:59:31.315Z,100207.84
2023-02-06T11:02:19.901Z,100211.25
2023-02-06T11:04:55.334Z,100204.47
2023-02-06T11:07:31.556Z,100206.97
2023-02-06T11:10:00.709Z,100204.47
2023-02-06T11:12:37.148Z,100196.81
2023-02-06T11:15:19.439Z,100195.97
2023-02-06T11:17:47.947Z,100193.41
2023-02-06T11:20:23.209Z,100193.41
2023-02-06T11:22:53.543Z,100184.06
2023-02-06T11:25:28.657Z,100178.97
2023-02-06T11:27:59.623Z,100184.88
2023-02-06T11:30:35.653Z,100181.53
2023-02-06T11:33:08.654Z,100177.31
2023-02-06T11:35:41.983Z,100176.47
2023-02-06T11:38:18.145Z,100165.44
2023-02-06T11:40:57.391Z,100171.41
2023-02-06T11:43:29.195Z,100172.22
2023-02-06T11:46:17.046Z,100162.91
2023-02-06T11:48:47.328Z,100163.78
2023-02-06T11:51:17.880Z,100166.41
2023-02-06T11:53:58.539Z,100167.25
2023-02-06T11:56:28.582Z,100167.22
2023-02-06T11:59:08.732Z,100164.72
2023-02-06T12:01:45.301Z,100157.97
2023-02-06T12:04:23.858Z,100159.63
2023-02-06T12:06:58.421Z,100156.22
2023-02-06T12:09:27.032Z,100145.13
2023-02-06T12:12:02.278Z,100144.31
2023-02-06T12:14:38.763Z,100146.84
2023-02-06T12:17:24.646Z,100129.03
2023-02-06T12:20:01.865Z,100135.78
2023-02-06T12:22:37.331Z,100133.28
2023-02-06T12:25:07.057Z,100132.41
2023-02-06T12:27:39.873Z,100124.72
2023-02-06T12:30:31.560Z,100126.44
2023-02-06T12:33:09.697Z,100130.78
2023-02-06T12:35:46.400Z,100130.78
2023-02-06T12:38:25.406Z,100126.47
2023-02-06T12:41:08.004Z,100128.19
2023-02-06T12:43:38.936Z,100130.72
2023-02-06T12:46:18.109Z,100140.06
2023-02-06T12:48:53.269Z,100131.53
2023-02-06T12:51:28.253Z,100107.72
2023-02-06T12:54:00.529Z,100111.19
2023-02-06T12:56:32.966Z,100111.19
2023-02-06T12:59:26.014Z,100108.66
2023-02-06T13:02:02.097Z,100103.53
2023-02-06T13:04:34.136Z,100109.53
2023-02-06T13:07:09.292Z,100094.25
2023-02-06T13:09:42.317Z,100087.56
2023-02-06T13:12:20.754Z,100087.50
2023-02-06T13:14:52.429Z,100080.69
2023-02-06T13:17:25.378Z,100094.25
2023-02-06T13:20:06.952Z,100090.84
2023-02-06T13:22:45.783Z,100082.31
2023-02-06T13:25:50.888Z,100078.94
2023-02-06T13:28:58.064Z,100086.63
2023-02-06T13:31:33.768Z,100095.19
2023-02-06T13:34:09.600Z,100089.28
2023-02-06T13:36:53.874Z,100078.34
2023-02-06T13:39:33.403Z,100076.69
2023-02-06T13:42:35.705Z,100078.41
2023-02-06T13:45:07.093Z,100077.59
2023-02-06T13:48:47.380Z,100081.84
2023-02-06T13:51:48.518Z,100076.72
2023-02-06T13:54:43.726Z,100072.50
2023-02-06T13:57:29.813Z,100077.59
2023-02-06T14:00:03.771Z,100078.53
2023-02-06T14:02:39.319Z,100091.34
2023-02-06T14:05:12.810Z,100089.56
2023-02-06T14:08:08.430Z,100080.19
2023-02-06T14:11:23.487Z,100087.84
2023-02-06T14:14:28.296Z,100091.28
2023-02-06T14:17:08.593Z,100091.19
2023-02-06T14:19:46.582Z,100084.34
2023-02-06T14:22:37.638Z,100084.31
2023-02-06T14:25:39.647Z,100084.34
2023-02-06T14:28:21.561Z,100082.66
2023-02-06T14:31:01.667Z,100086.09
2023-02-06T14:33:53.438Z,100081.84
2023-02-06T14:36:40.247Z,100086.91
2023-02-06T14:39:48.172Z,100082.66
2023-02-06T14:42:23.646Z,100084.34
2023-02-06T14:45:01.815Z,100089.41
2023-02-06T14:47:33.974Z,100099.63
2023-02-06T14:50:02.945Z,100102.16
2023-02-06T14:52:34.354Z,100101.31
2023-02-06T14:55:02.995Z,100088.56
2023-02-06T14:57:34.489Z,100085.13
2023-02-06T15:00:08.931Z,100080.03
2023-02-06T15:02:40.064Z,100088.53
2023-02-06T15:05:26.442Z,100083.44
2023-02-06T15:07:59.692Z,100096.13
2023-02-06T15:10:31.235Z,100096.16
2023-02-06T15:13:01.132Z,100098.69
2023-02-06T15:15:31.833Z,100088.50
2023-02-06T15:18:04.184Z,100094.50
2023-02-06T15:20:37.324Z,100092.75
2023-02-06T15:23:17.698Z,100095.31
2023-02-06T15:26:06.898Z,100097.00
2023-02-06T15:28:38.184Z,100091.03
2023-02-06T15:31:18.109Z,100091.88
2023-02-06T15:33:50.917Z,100087.63
2023-02-06T15:36:25.501Z,100091.06
2023-02-06T15:38:54.145Z,100097.03
2023-02-06T15:41:23.086Z,100086.00
2023-02-06T15:44:02.805Z,100084.25
2023-02-06T15:46:31.985Z,100099.59
2023-02-06T15:49:00.790Z,100091.03
2023-02-06T15:51:31.501Z,100082.50
2023-02-06T15:54:19.394Z,100089.28
2023-02-06T15:56:53.047Z,100084.19
2023-02-06T15:59:25.924Z,100090.94
2023-02-06T16:01:57.127Z,100084.13
2023-02-06T16:04:30.820Z,100080.75
2023-02-06T16:07:07.102Z,100084.16
2023-02-06T16:09:42.364Z,100085.84
2023-02-06T16:12:11.266Z,100073.91
2023-02-06T16:14:51.783Z,100078.97
2023-02-06T16:17:35.667Z,100082.38
2023-02-06T16:20:08.100Z,100076.41
2023-02-06T16:22:39.940Z,100082.34
2023-02-06T16:25:22.937Z,100077.22
2023-02-06T16:27:52.145Z,100073.00
2023-02-06T16:30:29.110Z,100079.78
2023-02-06T16:33:00.831Z,100069.59
2023-02-06T16:35:30.254Z,100074.66
2023-02-06T16:37:58.548Z,100065.31
2023-02-06T16:40:27.103Z,100067.88
2023-02-06T16:42:55.518Z,100074.66
2023-02-06T16:45:29.016Z,100073.81
2023-02-06T16:47:57.777Z,100074.63
2023-02-06T16:50:26.121Z,100078.06
2023-02-06T16:52:59.045Z,100084.00
2023-02-06T16:55:28.840Z,100083.16
2023-02-06T16:58:00.787Z,100083.13
2023-02-06T17:00:33.050Z,100093.31
2023-02-06T17:03:01.623Z,100095.00
2023-02-06T17:05:31.684Z,100094.13
2023-02-06T17:08:01.569Z,100092.44
2023-02-06T17:10:30.050Z,100075.44
2023-02-06T17:12:58.622Z,100072.03
2023-02-06T17:15:27.524Z,100068.59
2023-02-06T17:17:57.741Z,100065.25
2023-02-06T17:20:34.184Z,100062.66
2023-02-06T17:23:03.306Z,100070.31
2023-02-06T17:25:32.660Z,100066.03
2023-02-06T17:28:02.864Z,100052.44
2023-02-06T17:30:31.807Z,100068.56
2023-02-06T17:33:02.442Z,100069.41
2023-02-06T17:35:34.358Z,100081.25
2023-02-06T17:38:03.483Z,100085.50
2023-02-06T17:40:35.545Z,100083.81
2023-02-06T17:43:05.770Z,100086.38
2023-02-06T17:45:35.582Z,100076.97
2023-02-06T17:48:05.878Z,100074.44
2023-02-06T17:50:36.813Z,100079.53
2023-02-06T17:53:07.067Z,100076.97
2023-02-06T17:55:36.812Z,100077.88
2023-02-06T17:58:05.698Z,100065.94
2023-02-06T18:00:34.350Z,100072.69
2023-02-06T18:03:05.003Z,100068.41
2023-02-06T18:05:34.938Z,100059.97
2023-02-06T18:08:03.316Z,100059.06
2023-02-06T18:10:31.885Z,100058.22
2023-02-06T18:13:00.201Z,100059.91
2023-02-06T18:15:30.400Z,100048.06
2023-02-06T18:18:00.183Z,100048.88
2023-02-06T18:20:28.460Z,100052.22
2023-02-06T18:22:58.249Z,100054.75
2023-02-06T18:25:26.592Z,100051.31
2023-02-06T18:27:54.880Z,100055.59
2023-02-06T18:30:23.689Z,100050.50
2023-02-06T18:32:52.191Z,100051.34
2023-02-06T18:35:20.729Z,100045.31
2023-02-06T18:37:50.140Z,100049.56
2023-02-06T18:40:20.110Z,100045.31
2023-02-06T18:42:54.870Z,100058.06
2023-02-06T18:45:26.432Z,100055.50
2023-02-06T18:47:55.577Z,100058.06
2023-02-06T18:50:24.134Z,100052.16
2023-02-06T18:52:52.687Z,100060.59
2023-02-06T18:55:22.714Z,100063.19
2023-02-06T18:57:51.251Z,100053.81
2023-02-06T19:00:22.966Z,100052.16
2023-02-06T19:02:51.658Z,100050.50
2023-02-06T19:05:21.065Z,100050.41
2023-02-06T19:07:52.213Z,100045.41
2023-02-06T19:10:23.050Z,100045.34
2023-02-06T19:12:51.418Z,100037.72
2023-02-06T19:15:20.403Z,100042.78
2023-02-06T19:17:50.177Z,100047.81
2023-02-06T19:20:19.265Z,100048.59
2023-02-06T19:22:47.570Z,100051.97
2023-02-06T19:25:16.113Z,100063.84
2023-02-06T19:27:45.790Z,100056.31
2023-02-06T19:30:14.541Z,100052.88
2023-02-06T19:32:43.448Z,100056.25
2023-02-06T19:35:12.112Z,100051.13
2023-02-06T19:37:40.771Z,100047.66
2023-02-06T19:40:09.862Z,100045.13
2023-02-06T19:42:39.610Z,100036.56
2023-02-06T19:45:09.641Z,100035.75
2023-02-06T19:47:37.909Z,100040.00
2023-02-06T19:50:07.233Z,100045.94
2023-02-06T19:52:35.608Z,100043.31
2023-02-06T19:55:04.328Z,100037.38
2023-02-06T19:57:32.870Z,100040.75
2023-02-06T20:00:01.194Z,100044.16
2023-02-06T20:02:30.976Z,100048.31
2023-02-06T20:05:01.571Z,100062.69
2023-02-06T20:07:31.840Z,100067.81
2023-02-06T20:10:00.224Z,100069.41
2023-02-06T20:12:29.200Z,100065.19
2023-02-06T20:14:57.595Z,100067.66
2023-02-06T20:17:26.957Z,100070.09
2023-02-06T20:19:59.847Z,100065.06
2023-02-06T20:22:28.135Z,100060.84
2023-02-06T20:24:56.593Z,100053.16
2023-02-06T20:27:24.838Z,100037.88
2023-02-06T20:29:53.944Z,100045.41
2023-02-06T20:32:22.877Z,100050.44
2023-02-06T20:34:51.771Z,100053.09
2023-02-06T20:37:25.037Z,100052.16
2023-02-06T20:39:53.940Z,100063.19
2023-02-06T20:42:30.074Z,100072.50
2023-02-06T20:44:59.509Z,100076.84
2023-02-06T20:47:28.366Z,100078.56
2023-02-06T20:50:00.365Z,100078.53
2023-02-06T20:52:30.587Z,100071.75
2023-02-06T20:54:58.988Z,100074.25
2023-02-06T20:57:28.146Z,100069.03
2023-02-06T20:59:56.406Z,100060.56
2023-02-06T21:02:24.906Z,100053.78
2023-02-06T21:04:53.284Z,100050.34
2023-02-06T21:07:21.639Z,100044.34
2023-02-06T21:09:51.729Z,100048.53
2023-02-06T21:12:20.214Z,100040.00
2023-02-06T21:14:48.560Z,100041.69
2023-02-06T21:17:16.902Z,100041.69
2023-02-06T21:19:45.267Z,100041.59
2023-02-06T21:22:13.661Z,100036.47
2023-02-06T21:24:41.996Z,100023.69
2023-02-06T21:27:12.086Z,100025.31
2023-02-06T21:29:40.453Z,100023.63
2023-02-06T21:32:14.063Z,100039.72
2023-02-06T21:34:43.729Z,100031.25
2023-02-06T21:37:12.190Z,100032.97
2023-02-06T21:39:41.060Z,100036.38
2023-02-06T21:42:11.604Z,100045.66
2023-02-06T21:44:39.835Z,100051.53
2023-02-06T21:47:09.819Z,100046.50
2023-02-06T21:49:38.334Z,100034.59
2023-02-06T21:52:06.601Z,100044.69
2023-02-06T21:54:34.898Z,100051.50
2023-02-06T21:57:03.390Z,100046.38
2023-02-06T21:59:34.165Z,100043.06
2023-02-06T22:02:02.591Z,100022.75
2023-02-06T22:04:30.903Z,100022.78
2023-02-06T22:06:59.334Z,100021.09
2023-02-06T22:09:27.669Z,100023.63
2023-02-06T22:11:56.748Z,100036.38
2023-02-06T22:14:25.257Z,100037.25
2023-02-06T22:16:55.006Z,100038.97
2023-02-06T22:19:23.306Z,100040.69
2023-02-06T22:21:51.678Z,100044.81
2023-02-06T22:24:20.628Z,100045.66
2023-02-06T22:26:49.012Z,100035.56
2023-02-06T22:29:18.869Z,100029.56
2023-02-06T22:31:48.413Z,100034.63
2023-02-06T22:34:21.294Z,100036.28
2023-02-06T22:36:51.192Z,100041.44
2023-02-06T22:39:19.608Z,100038.09
2023-02-06T22:41:48.893Z,100041.41
2023-02-06T22:44:18.594Z,100031.31
2023-02-06T22:46:49.861Z,100032.97
2023-02-06T22:49:20.771Z,100031.25
2023-02-06T22:51:49.405Z,100042.28
2023-02-06T22:54:18.133Z,100041.41
2023-02-06T22:56:47.040Z,100037.91
2023-02-06T22:59:19.141Z,100054.06
2023-02-06T23:01:49.720Z,100060.06
2023-02-06T23:04:23.010Z,100060.00
2023-02-06T23:06:52.920Z,100070.13
2023-02-06T23:09:24.149Z,100075.19
2023-02-06T23:11:54.053Z,100070.84
2023-02-06T23:14:22.674Z,100070.00
2023-02-06T23:16:51.590Z,100071.75
2023-02-06T23:19:22.007Z,100072.59
2023-02-06T23:21:52.221Z,100071.75
2023-02-06T23:24:21.287Z,100068.34
2023-02-06T23:26:53.153Z,100055.59
2023-02-06T23:29:23.869Z,100061.47
2023-02-06T23:31:52.698Z,100064.91
2023-02-06T23:34:24.492Z,100071.50
2023-02-06T23:36:53.931Z,100075.59
2023-02-06T23:39:22.792Z,100082.38
2023-02-06T23:41:51.254Z,100090.78
2023-02-06T23:44:20.086Z,100095.78
2023-02-06T23:46:48.717Z,100091.41
2023-02-06T23:49:17.070Z,100098.03
2023-02-06T23:51:47.109Z,100100.53
2023-02-06T23:54:15.513Z,100106.31
2023-02-06T23:56:44.160Z,100107.00
2023-02-06T23:59:12.896Z,100111.38
